Time;durP1;ratioP1;P1;durP2;ratioP2;P2;SDS_P1;SDS_P2;PMS_P1;PMS_P2;Temp;Humidity;BMP_temperature;BMP_pressure;BME280_temperature;BME280_humidity;BME280_pressure;Samples;Min_cycle;Max_cycle;Signal;HPM_P1;HPM_P2
2022/04/26 03:36:09;;;;;;;7.37;6.57;;;;;;;;;;5025510;28;20221;-37
2022/04/26 03:38:36;;;;;;;8.70;7.00;;;;;;;;;;5030714;28;20198;-33
2022/04/26 03:41:03;;;;;;;10.60;8.17;;;;;;;;;;5023451;28;20204;-33
2022/04/26 03:43:30;;;;;;;10.30;8.67;;;;;;;;;;5012796;28;20203;-38
2022/04/26 03:45:58;;;;;;;9.13;7.50;;;;;;;;;;5015022;28;20234;-34
2022/04/26 03:48:25;;;;;;;9.30;7.80;;;;;;;;;;5011293;28;20310;-36
2022/04/26 03:50:52;;;;;;;11.00;8.83;;;;;;;;;;5012505;28;20215;-35
2022/04/26 03:53:21;;;;;;;10.57;8.40;;;;;;;;;;5019154;28;20218;-34
2022/04/26 03:55:48;;;;;;;10.50;8.30;;;;;;;;;;5024024;28;20242;-30
2022/04/26 03:58:15;;;;;;;11.10;8.37;;;;;;;;;;5021940;28;20210;-34
2022/04/26 04:00:42;;;;;;;11.47;8.97;;;;;;;;;;5022858;28;20210;-36
2022/04/26 04:03:09;;;;;;;10.50;8.50;;;;;;;;;;5012781;28;20229;-36
2022/04/26 04:05:37;;;;;;;11.20;8.90;;;;;;;;;;5016752;28;20226;-36
2022/04/26 04:08:04;;;;;;;9.37;7.77;;;;;;;;;;5026135;28;20231;-38
2022/04/26 04:10:32;;;;;;;10.67;7.47;;;;;;;;;;5013355;28;20203;-32
2022/04/26 04:12:59;;;;;;;10.47;8.07;;;;;;;;;;5019070;28;20210;-34
2022/04/26 04:15:26;;;;;;;8.90;7.80;;;;;;;;;;5016089;28;20223;-35
2022/04/26 04:17:54;;;;;;;10.20;7.40;;;;;;;;;;5012738;28;20207;-32
2022/04/26 04:20:21;;;;;;;8.47;7.17;;;;;;;;;;5013365;28;20195;-37
2022/04/26 04:22:49;;;;;;;9.47;7.63;;;;;;;;;;5023249;28;20207;-41
2022/04/26 04:25:16;;;;;;;12.10;7.73;;;;;;;;;;5025690;28;20223;-35
2022/04/26 04:27:45;;;;;;;7.50;6.77;;;;;;;;;;5030702;28;20238;-34
2022/04/26 04:30:12;;;;;;;10.10;8.20;;;;;;;;;;5031495;28;20206;-33
2022/04/26 04:32:39;;;;;;;10.33;8.13;;;;;;;;;;5031369;28;20210;-31
2022/04/26 04:35:07;;;;;;;8.97;7.80;;;;;;;;;;5012010;28;20203;-36
2022/04/26 04:37:34;;;;;;;10.67;7.87;;;;;;;;;;5028468;28;20206;-34
2022/04/26 04:40:02;;;;;;;11.03;9.00;;;;;;;;;;5012350;28;20207;-36
2022/04/26 04:42:29;;;;;;;10.90;8.43;;;;;;;;;;5020652;28;20253;-35
2022/04/26 04:44:58;;;;;;;9.27;7.80;;;;;;;;;;5023032;28;20234;-34
2022/04/26 04:47:26;;;;;;;10.10;7.43;;;;;;;;;;5020241;28;20227;-35
2022/04/26 04:49:53;;;;;;;11.57;8.23;;;;;;;;;;5016045;28;20207;-38
2022/04/26 04:52:20;;;;;;;9.50;7.83;;;;;;;;;;5023488;28;20199;-31
2022/04/26 04:54:49;;;;;;;8.23;6.70;;;;;;;;;;5012920;28;20209;-38
2022/04/26 04:57:16;;;;;;;8.33;7.43;;;;;;;;;;5015642;28;20221;-31
2022/04/26 04:59:43;;;;;;;10.47;8.23;;;;;;;;;;5023082;28;20337;-33
2022/04/26 05:02:11;;;;;;;8.40;7.13;;;;;;;;;;5024584;28;20210;-31
2022/04/26 05:04:39;;;;;;;8.40;7.30;;;;;;;;;;5032804;28;20218;-37
2022/04/26 05:07:07;;;;;;;10.23;8.37;;;;;;;;;;5031109;28;20318;-34
2022/04/26 05:09:35;;;;;;;10.20;8.27;;;;;;;;;;5022853;28;20219;-33
2022/04/26 05:12:02;;;;;;;10.80;8.23;;;;;;;;;;5017559;28;20209;-36
2022/04/26 05:14:29;;;;;;;10.30;8.17;;;;;;;;;;5013240;28;20207;-33
2022/04/26 05:16:57;;;;;;;10.67;7.80;;;;;;;;;;5030356;28;20236;-38
2022/04/26 05:19:25;;;;;;;10.40;8.20;;;;;;;;;;5045893;28;20294;-30
2022/04/26 05:21:52;;;;;;;10.70;8.20;;;;;;;;;;5020082;28;20301;-34
2022/04/26 05:27:05;;;;;;;11.57;8.33;;;;;;;;;;5024536;28;20253;-34
2022/04/26 05:29:32;;;;;;;9.23;8.33;;;;;;;;;;5025507;28;20250;-36
2022/04/26 05:31:59;;;;;;;9.77;8.10;;;;;;;;;;5013924;28;20215;-32
2022/04/26 05:34:28;;;;;;;13.80;8.30;;;;;;;;;;5030980;28;20203;-31
2022/04/26 05:36:56;;;;;;;7.50;6.63;;;;;;;;;;5016212;28;20230;-32
2022/04/26 05:39:23;;;;;;;4.70;4.30;;;;;;;;;;5035054;28;20202;-34
2022/04/26 05:41:50;;;;;;;4.77;4.37;;;;;;;;;;5026875;28;20209;-34
2022/04/26 05:44:18;;;;;;;3.93;3.53;;;;;;;;;;5024198;28;20207;-33
2022/04/26 05:46:45;;;;;;;5.63;4.60;;;;;;;;;;5014385;28;20310;-34
2022/04/26 05:49:12;;;;;;;4.03;3.60;;;;;;;;;;5016881;28;20237;-36
2022/04/26 05:51:40;;;;;;;3.77;3.47;;;;;;;;;;5023493;28;20206;-36
2022/04/26 05:54:08;;;;;;;5.27;4.77;;;;;;;;;;5024620;28;20211;-30
2022/04/26 05:56:35;;;;;;;5.10;4.03;;;;;;;;;;5024066;28;20227;-34
2022/04/26 05:59:03;;;;;;;4.60;4.20;;;;;;;;;;5027920;28;20209;-34
2022/04/26 06:01:31;;;;;;;5.93;4.93;;;;;;;;;;5012688;28;20200;-35
2022/04/26 06:03:58;;;;;;;5.73;4.93;;;;;;;;;;5012564;28;20234;-35
2022/04/26 06:06:26;;;;;;;4.63;4.13;;;;;;;;;;5015133;28;20284;-32
2022/04/26 06:08:54;;;;;;;6.30;4.83;;;;;;;;;;5017746;28;20277;-29
2022/04/26 06:11:21;;;;;;;4.70;4.30;;;;;;;;;;5017042;28;20214;-39
2022/04/26 06:13:49;;;;;;;4.93;3.97;;;;;;;;;;5017431;28;20207;-31
2022/04/26 06:16:16;;;;;;;5.23;4.33;;;;;;;;;;5032948;28;20231;-34
2022/04/26 06:18:43;;;;;;;3.77;3.47;;;;;;;;;;5032782;28;20202;-36
2022/04/26 06:21:10;;;;;;;4.93;4.10;;;;;;;;;;5016538;28;20211;-42
2022/04/26 06:23:37;;;;;;;3.80;3.50;;;;;;;;;;5013204;28;20207;-30
2022/04/26 06:26:06;;;;;;;3.63;3.33;;;;;;;;;;5025639;28;20230;-32
2022/04/26 06:28:33;;;;;;;4.13;3.33;;;;;;;;;;5021810;28;20225;-31
2022/04/26 06:31:00;;;;;;;3.80;3.50;;;;;;;;;;5021426;28;20204;-31
2022/04/26 06:33:27;;;;;;;3.57;3.23;;;;;;;;;;5013184;28;20219;-29
2022/04/26 06:35:54;;;;;;;5.20;3.50;;;;;;;;;;5024245;28;20277;-32
2022/04/26 06:38:22;;;;;;;4.50;3.60;;;;;;;;;;5029170;28;20199;-34
2022/04/26 06:40:49;;;;;;;4.07;3.50;;;;;;;;;;5011944;28;20203;-37
2022/04/26 06:43:18;;;;;;;4.10;3.57;;;;;;;;;;5029240;28;20203;-31
2022/04/26 06:45:46;;;;;;;3.70;3.40;;;;;;;;;;5021370;28;20218;-32
2022/04/26 06:48:13;;;;;;;3.33;3.10;;;;;;;;;;5031370;28;20229;-35
2022/04/26 06:50:40;;;;;;;3.97;3.57;;;;;;;;;;5017824;28;20207;-30
2022/04/26 06:53:08;;;;;;;3.73;3.43;;;;;;;;;;5014798;28;20214;-35
2022/04/26 06:55:35;;;;;;;3.93;3.50;;;;;;;;;;5017305;28;20238;-34
2022/04/26 06:58:02;;;;;;;3.67;3.37;;;;;;;;;;5021612;28;20210;-33
2022/04/26 07:00:31;;;;;;;4.30;3.20;;;;;;;;;;5032020;28;20211;-34
2022/04/26 07:02:58;;;;;;;4.53;4.13;;;;;;;;;;5015614;28;20207;-34
2022/04/26 07:05:26;;;;;;;4.43;4.03;;;;;;;;;;5013958;28;20293;-33
2022/04/26 07:07:53;;;;;;;3.80;3.40;;;;;;;;;;5017558;28;20207;-33
2022/04/26 07:10:22;;;;;;;3.97;3.67;;;;;;;;;;5025053;28;20225;-31
2022/04/26 07:12:49;;;;;;;3.80;3.50;;;;;;;;;;5020683;28;20209;-36
2022/04/26 07:15:16;;;;;;;4.10;3.63;;;;;;;;;;5011197;28;20234;-36
2022/04/26 07:17:45;;;;;;;3.40;3.10;;;;;;;;;;5020316;28;20210;-33
2022/04/26 07:20:13;;;;;;;4.33;3.93;;;;;;;;;;5013970;28;20195;-39
2022/04/26 07:22:40;;;;;;;5.13;4.20;;;;;;;;;;5032019;28;20207;-35
2022/04/26 07:25:11;;;;;;;4.53;4.13;;;;;;;;;;5033415;28;20203;-34
2022/04/26 07:27:38;;;;;;;4.80;4.40;;;;;;;;;;5026373;28;20208;-33
2022/04/26 07:30:06;;;;;;;4.83;4.20;;;;;;;;;;5033839;28;20724;-31
2022/04/26 07:35:15;;;;;;;4.73;4.03;;;;;;;;;;5019744;28;20222;-41
2022/04/26 07:37:42;;;;;;;5.17;4.10;;;;;;;;;;5036807;28;20231;-35
2022/04/26 07:40:15;;;;;;;4.40;4.00;;;;;;;;;;5018454;28;20249;-42
2022/04/26 07:42:43;;;;;;;4.67;4.23;;;;;;;;;;5028530;28;20209;-40
2022/04/26 07:45:12;;;;;;;4.50;4.10;;;;;;;;;;5035432;28;20255;-37
2022/04/26 07:47:39;;;;;;;5.27;4.27;;;;;;;;;;5037137;28;20211;-40
2022/04/26 07:50:06;;;;;;;4.80;4.30;;;;;;;;;;5031976;28;20225;-37
2022/04/26 07:52:35;;;;;;;4.83;4.33;;;;;;;;;;5026148;28;20217;-42
2022/04/26 07:55:02;;;;;;;4.93;4.23;;;;;;;;;;5037160;28;20222;-34
2022/04/26 07:57:29;;;;;;;4.97;4.47;;;;;;;;;;5038078;28;20254;-35
2022/04/26 07:59:58;;;;;;;6.73;5.30;;;;;;;;;;5033377;28;20225;-36
2022/04/26 08:02:25;;;;;;;6.17;5.30;;;;;;;;;;5038460;28;20206;-34
2022/04/26 08:04:53;;;;;;;8.37;6.50;;;;;;;;;;5029146;28;20254;-31
2022/04/26 08:07:20;;;;;;;8.67;7.73;;;;;;;;;;5039428;28;20244;-33
2022/04/26 08:09:51;;;;;;;8.23;7.07;;;;;;;;;;5040317;28;20219;-34
2022/04/26 08:12:19;;;;;;;8.83;7.30;;;;;;;;;;5029941;28;20566;-37
2022/04/26 08:14:47;;;;;;;8.17;6.90;;;;;;;;;;5035515;28;20205;-36
2022/04/26 08:17:15;;;;;;;8.27;7.00;;;;;;;;;;5033635;28;20276;-39
2022/04/26 08:19:42;;;;;;;7.40;6.67;;;;;;;;;;5023916;28;20833;-35
2022/04/26 08:22:09;;;;;;;8.80;6.50;;;;;;;;;;5039730;28;20224;-36
2022/04/26 08:27:26;;;;;;;8.97;7.27;;;;;;;;;;5022332;28;20206;-34
2022/04/26 08:29:53;;;;;;;8.37;6.83;;;;;;;;;;5027881;28;20227;-35
2022/04/26 08:32:22;;;;;;;9.67;7.97;;;;;;;;;;5039986;28;20221;-33
2022/04/26 08:34:49;;;;;;;8.77;7.47;;;;;;;;;;5030508;28;20238;-30
2022/04/26 08:37:16;;;;;;;10.33;7.27;;;;;;;;;;5027181;28;20289;-34
2022/04/26 08:39:43;;;;;;;11.03;6.77;;;;;;;;;;5034435;28;20216;-33
2022/04/26 08:42:10;;;;;;;8.50;7.63;;;;;;;;;;5030078;28;20199;-29
2022/04/26 08:44:40;;;;;;;8.83;6.90;;;;;;;;;;5036679;28;20203;-30
2022/04/26 08:52:47;;;;;;;8.37;6.57;;;;;;;;;;5037596;28;20225;-37
2022/04/26 08:55:15;;;;;;;7.73;6.90;;;;;;;;;;5044317;28;20223;-30
2022/04/26 08:57:42;;;;;;;8.83;6.97;;;;;;;;;;5030260;28;20210;-35
2022/04/26 09:00:12;;;;;;;8.73;7.20;;;;;;;;;;5026670;28;20203;-35
2022/04/26 09:02:39;;;;;;;7.43;6.57;;;;;;;;;;5011718;28;20261;-30
2022/04/26 09:05:11;;;;;;;7.57;6.40;;;;;;;;;;5024911;28;20207;-39
2022/04/26 09:07:39;;;;;;;9.40;6.77;;;;;;;;;;5024023;28;20235;-31
2022/04/26 09:10:07;;;;;;;7.30;6.43;;;;;;;;;;5027849;28;20253;-37
2022/04/26 09:12:56;;;;;;;7.27;6.53;;;;;;;;;;5018124;28;20222;-35
2022/04/26 09:15:25;;;;;;;8.87;7.00;;;;;;;;;;5020019;28;20226;-33
2022/04/26 09:17:53;;;;;;;8.17;6.83;;;;;;;;;;5028518;28;20211;-34
2022/04/26 09:20:32;;;;;;;8.23;6.87;;;;;;;;;;5024565;28;20206;-31
2022/04/26 09:23:00;;;;;;;8.70;7.13;;;;;;;;;;5012201;28;20207;-32
2022/04/26 09:25:27;;;;;;;7.33;6.63;;;;;;;;;;5013707;28;20228;-31
2022/04/26 09:27:58;;;;;;;7.73;6.80;;;;;;;;;;5022835;28;20207;-39
2022/04/26 09:30:29;;;;;;;8.27;6.53;;;;;;;;;;5020791;28;20218;-37
2022/04/26 09:32:56;;;;;;;9.40;7.17;;;;;;;;;;5012275;28;20246;-31
2022/04/26 09:35:24;;;;;;;6.83;6.13;;;;;;;;;;5015347;28;20241;-32
2022/04/26 09:37:51;;;;;;;8.27;6.00;;;;;;;;;;5015842;28;20218;-30
2022/04/26 09:40:20;;;;;;;6.10;5.50;;;;;;;;;;5027934;28;20209;-38
2022/04/26 09:42:48;;;;;;;6.30;5.67;;;;;;;;;;5014452;28;20266;-33
2022/04/26 09:45:16;;;;;;;9.77;5.07;;;;;;;;;;5026774;28;20347;-30
2022/04/26 09:47:45;;;;;;;7.00;5.90;;;;;;;;;;5032812;28;20211;-39
2022/04/26 09:50:13;;;;;;;7.20;5.60;;;;;;;;;;5025396;28;20318;-29
2022/04/26 09:52:40;;;;;;;6.77;5.87;;;;;;;;;;5012432;28;20338;-33
2022/04/26 09:55:09;;;;;;;5.83;5.23;;;;;;;;;;5010015;28;20218;-34
2022/04/26 09:57:36;;;;;;;5.60;5.10;;;;;;;;;;5029844;28;20219;-39
2022/04/26 10:00:05;;;;;;;6.50;5.83;;;;;;;;;;5013086;28;20197;-38
2022/04/26 10:02:33;;;;;;;5.17;4.67;;;;;;;;;;5036030;28;20211;-31
2022/04/26 10:05:04;;;;;;;5.53;5.03;;;;;;;;;;5027232;28;20212;-36
2022/04/26 10:07:34;;;;;;;6.10;4.90;;;;;;;;;;5020174;28;20207;-31
2022/04/26 10:10:01;;;;;;;8.10;4.97;;;;;;;;;;5021522;28;20229;-29
2022/04/26 10:12:28;;;;;;;6.73;5.27;;;;;;;;;;5016197;28;20215;-31
2022/04/26 10:14:56;;;;;;;6.40;5.40;;;;;;;;;;5015357;28;20210;-31
2022/04/26 10:17:23;;;;;;;6.57;5.27;;;;;;;;;;5032809;28;20211;-37
2022/04/26 10:19:50;;;;;;;5.50;4.03;;;;;;;;;;5030208;28;20215;-31
2022/04/26 10:22:18;;;;;;;5.40;4.60;;;;;;;;;;5028778;28;20209;-35
2022/04/26 10:25:00;;;;;;;5.27;4.40;;;;;;;;;;5023864;28;20305;-30
2022/04/26 10:27:27;;;;;;;6.13;4.57;;;;;;;;;;5022857;28;20214;-37
2022/04/26 10:29:55;;;;;;;5.80;4.77;;;;;;;;;;5025014;28;20215;-37
2022/04/26 10:32:32;;;;;;;7.20;5.57;;;;;;;;;;5017431;28;20211;-32
2022/04/26 10:35:16;;;;;;;5.13;4.63;;;;;;;;;;5028341;28;20234;-36
2022/04/26 10:37:44;;;;;;;8.53;4.37;;;;;;;;;;5022491;28;20203;-36
2022/04/26 10:40:12;;;;;;;5.97;5.23;;;;;;;;;;5024343;28;20260;-34
2022/04/26 10:42:39;;;;;;;5.87;5.00;;;;;;;;;;5024271;28;20270;-33
2022/04/26 10:45:12;;;;;;;6.87;4.77;;;;;;;;;;5025878;28;21286;-37
2022/04/26 10:47:40;;;;;;;7.77;4.80;;;;;;;;;;5022658;28;20195;-32
2022/04/26 10:50:09;;;;;;;7.93;5.20;;;;;;;;;;5024799;28;20243;-30
2022/04/26 10:52:43;;;;;;;6.23;5.10;;;;;;;;;;5021993;28;20330;-31
2022/04/26 10:55:14;;;;;;;4.93;4.37;;;;;;;;;;5022100;28;20248;-34
2022/04/26 10:57:42;;;;;;;6.87;4.90;;;;;;;;;;5030031;28;20256;-34
2022/04/26 11:00:11;;;;;;;5.60;4.40;;;;;;;;;;5022842;28;20195;-35
2022/04/26 11:02:39;;;;;;;6.20;4.87;;;;;;;;;;5022956;28;20208;-35
2022/04/26 11:05:10;;;;;;;5.03;4.50;;;;;;;;;;5030655;28;20207;-31
2022/04/26 11:07:39;;;;;;;6.27;5.47;;;;;;;;;;5030452;28;20207;-34
2022/04/26 11:10:07;;;;;;;5.93;5.33;;;;;;;;;;5018963;28;20277;-35
2022/04/26 11:12:37;;;;;;;10.17;5.60;;;;;;;;;;5026789;28;20225;-36
2022/04/26 11:15:06;;;;;;;6.07;5.23;;;;;;;;;;5024891;28;20198;-34
2022/04/26 11:17:34;;;;;;;6.03;4.43;;;;;;;;;;5035401;28;20206;-39
2022/04/26 11:20:01;;;;;;;5.13;3.83;;;;;;;;;;5027121;28;20207;-37
2022/04/26 11:22:29;;;;;;;5.20;4.40;;;;;;;;;;5025776;28;20212;-38
2022/04/26 11:30:44;;;;;;;3.10;2.90;;;;;;;;;;4997687;28;20230;-33
2022/04/26 11:33:12;;;;;;;3.77;3.40;;;;;;;;;;5013087;28;20218;-34
2022/04/26 11:35:40;;;;;;;3.87;3.40;;;;;;;;;;5011187;28;20239;-34
2022/04/26 11:38:09;;;;;;;3.07;2.80;;;;;;;;;;5026202;28;20203;-37
2022/04/26 11:40:38;;;;;;;3.50;3.20;;;;;;;;;;5016157;28;20208;-32
2022/04/26 11:43:14;;;;;;;4.10;3.33;;;;;;;;;;5025720;28;20206;-32
2022/04/26 11:45:41;;;;;;;4.60;3.10;;;;;;;;;;5031065;28;20285;-39
2022/04/26 11:48:10;;;;;;;3.87;3.30;;;;;;;;;;5026394;28;20202;-35
2022/04/26 11:50:37;;;;;;;4.27;3.47;;;;;;;;;;5018682;28;20313;-35
2022/04/26 11:53:05;;;;;;;3.40;3.10;;;;;;;;;;5025011;28;20260;-33
2022/04/26 11:55:33;;;;;;;3.23;2.93;;;;;;;;;;5025609;28;20234;-32
2022/04/26 11:58:08;;;;;;;4.27;3.00;;;;;;;;;;5011923;28;20225;-37
2022/04/26 12:00:36;;;;;;;4.30;2.90;;;;;;;;;;5016576;28;20221;-28
2022/04/26 12:03:04;;;;;;;4.00;2.50;;;;;;;;;;5009599;28;20199;-32
2022/04/26 12:05:35;;;;;;;4.60;2.67;;;;;;;;;;5011364;28;20227;-32
2022/04/26 12:08:03;;;;;;;3.03;2.80;;;;;;;;;;5017961;28;20199;-33
2022/04/26 12:10:32;;;;;;;5.13;2.77;;;;;;;;;;5008150;28;20227;-33
2022/04/26 12:13:01;;;;;;;6.87;4.10;;;;;;;;;;5025542;28;20203;-34
2022/04/26 12:15:29;;;;;;;5.30;4.77;;;;;;;;;;5013028;28;20227;-30
2022/04/26 12:18:11;;;;;;;5.70;5.10;;;;;;;;;;5014279;28;20204;-36
2022/04/26 12:20:56;;;;;;;5.60;4.90;;;;;;;;;;5020107;28;20203;-32
2022/04/26 12:23:24;;;;;;;5.47;4.97;;;;;;;;;;5025063;28;20265;-31
2022/04/26 12:25:57;;;;;;;5.93;5.33;;;;;;;;;;5026864;28;20235;-33
2022/04/26 12:28:24;;;;;;;7.17;5.10;;;;;;;;;;5030406;28;20196;-33
2022/04/26 12:30:51;;;;;;;7.03;5.10;;;;;;;;;;5039279;28;20245;-38
2022/04/26 12:33:30;;;;;;;6.00;5.33;;;;;;;;;;5043984;28;20213;-39
2022/04/26 12:36:01;;;;;;;7.83;5.60;;;;;;;;;;5026471;28;20226;-38
2022/04/26 12:38:31;;;;;;;8.50;5.67;;;;;;;;;;5026323;28;20240;-32
2022/04/26 12:41:01;;;;;;;11.60;5.67;;;;;;;;;;5025645;28;20191;-38
2022/04/26 12:43:29;;;;;;;5.30;4.80;;;;;;;;;;5024481;28;20203;-37
2022/04/26 12:46:00;;;;;;;4.60;3.90;;;;;;;;;;5028424;28;20314;-30
2022/04/26 12:51:20;;;;;;;5.27;3.40;;;;;;;;;;5026126;28;20229;-33
2022/04/26 12:53:47;;;;;;;8.27;3.67;;;;;;;;;;5039927;28;20202;-31
2022/04/26 12:56:15;;;;;;;3.50;3.20;;;;;;;;;;5029784;28;20226;-35
2022/04/26 12:58:43;;;;;;;3.07;2.77;;;;;;;;;;5037536;28;20218;-31
2022/04/26 13:01:10;;;;;;;3.47;3.17;;;;;;;;;;5039841;28;20292;-32
2022/04/26 13:03:38;;;;;;;3.63;2.53;;;;;;;;;;5035981;28;20211;-31
2022/04/26 13:06:07;;;;;;;3.20;2.90;;;;;;;;;;5028024;28;20229;-34
2022/04/26 13:08:36;;;;;;;3.10;2.67;;;;;;;;;;5042134;28;20206;-32
2022/04/26 13:11:04;;;;;;;3.40;2.93;;;;;;;;;;5037912;28;20219;-36
2022/04/26 13:13:32;;;;;;;4.37;3.10;;;;;;;;;;5031606;28;20217;-36
2022/04/26 13:15:59;;;;;;;2.67;2.47;;;;;;;;;;5042883;28;20232;-31
2022/04/26 13:18:28;;;;;;;3.30;3.00;;;;;;;;;;5025903;28;20218;-31
2022/04/26 13:20:55;;;;;;;3.50;2.90;;;;;;;;;;5022838;28;20281;-34
2022/04/26 13:23:23;;;;;;;5.10;3.87;;;;;;;;;;5035191;28;20214;-37
2022/04/26 13:25:52;;;;;;;4.27;3.87;;;;;;;;;;5024583;28;20234;-34
2022/04/26 13:28:20;;;;;;;4.00;3.37;;;;;;;;;;5022937;28;20199;-37
2022/04/26 13:30:48;;;;;;;7.47;3.80;;;;;;;;;;5033455;28;20222;-33
2022/04/26 13:33:15;;;;;;;3.83;3.23;;;;;;;;;;5033545;28;20309;-39
2022/04/26 13:35:42;;;;;;;2.60;2.40;;;;;;;;;;5030083;28;20236;-38
2022/04/26 13:38:10;;;;;;;4.93;2.67;;;;;;;;;;5026738;28;20204;-34
2022/04/26 13:40:38;;;;;;;3.43;2.63;;;;;;;;;;5040951;28;20214;-33
2022/04/26 13:43:07;;;;;;;2.93;2.63;;;;;;;;;;5030365;28;20202;-32
2022/04/26 13:45:34;;;;;;;3.90;2.67;;;;;;;;;;5032897;28;20219;-34
2022/04/26 13:48:02;;;;;;;3.20;2.90;;;;;;;;;;5020278;28;20214;-33
2022/04/26 13:50:30;;;;;;;3.67;3.23;;;;;;;;;;5032745;28;20218;-29
2022/04/26 13:52:57;;;;;;;3.87;3.13;;;;;;;;;;5033578;28;20210;-37
2022/04/26 13:55:26;;;;;;;4.20;3.60;;;;;;;;;;5028138;28;20295;-35
2022/04/26 13:57:54;;;;;;;4.20;3.80;;;;;;;;;;5029732;28;20274;-30
2022/04/26 14:00:23;;;;;;;4.90;4.50;;;;;;;;;;5033010;28;20195;-31
2022/04/26 14:02:50;;;;;;;3.40;3.10;;;;;;;;;;5032397;28;20210;-31
2022/04/26 14:05:18;;;;;;;3.93;3.33;;;;;;;;;;5014809;28;20219;-33
2022/04/26 14:07:46;;;;;;;4.37;3.20;;;;;;;;;;5012223;28;20199;-33
2022/04/26 14:10:13;;;;;;;3.73;3.30;;;;;;;;;;5011267;28;20213;-31
2022/04/26 14:12:41;;;;;;;4.87;2.73;;;;;;;;;;5022911;28;20214;-32
2022/04/26 14:23:27;;;;;;;3.20;2.77;;;;;;;;;;5028201;28;20234;-38
2022/04/26 14:25:54;;;;;;;3.07;2.63;;;;;;;;;;5020379;28;20227;-30
2022/04/26 14:28:22;;;;;;;3.90;3.27;;;;;;;;;;5015686;28;20208;-34
2022/04/26 14:30:49;;;;;;;3.00;2.73;;;;;;;;;;5012850;28;20223;-34
2022/04/26 14:33:18;;;;;;;3.60;2.97;;;;;;;;;;5019891;28;20206;-34
2022/04/26 14:35:45;;;;;;;3.20;2.90;;;;;;;;;;5019584;28;20227;-34
2022/04/26 14:38:12;;;;;;;2.63;2.43;;;;;;;;;;5032035;28;20214;-35
2022/04/26 14:40:39;;;;;;;3.03;2.80;;;;;;;;;;5014176;28;20207;-35
2022/04/26 14:43:09;;;;;;;3.20;2.90;;;;;;;;;;5024593;28;20203;-33
2022/04/26 14:45:44;;;;;;;3.83;2.80;;;;;;;;;;5037335;28;20230;-36
2022/04/26 14:48:11;;;;;;;3.13;2.73;;;;;;;;;;5029758;28;20318;-34
2022/04/26 14:50:40;;;;;;;2.70;2.50;;;;;;;;;;5020923;28;20235;-32
2022/04/26 14:53:08;;;;;;;3.50;3.20;;;;;;;;;;5014656;28;20283;-36
2022/04/26 14:55:36;;;;;;;3.03;2.70;;;;;;;;;;5014646;28;20230;-35
2022/04/26 14:58:03;;;;;;;3.87;2.97;;;;;;;;;;5016093;28;20227;-34
2022/04/26 15:00:31;;;;;;;2.97;2.63;;;;;;;;;;5029341;28;20208;-34
2022/04/26 15:02:58;;;;;;;2.63;2.43;;;;;;;;;;5012851;28;20218;-35
2022/04/26 15:05:26;;;;;;;2.63;2.43;;;;;;;;;;5022737;28;20225;-40
2022/04/26 15:10:39;;;;;;;3.47;2.70;;;;;;;;;;5026038;28;20294;-38
2022/04/26 15:18:36;;;;;;;2.50;2.30;;;;;;;;;;5031312;28;20256;-35
2022/04/26 15:21:06;;;;;;;2.60;2.40;;;;;;;;;;5016228;28;20199;-35
2022/04/26 15:23:35;;;;;;;5.00;3.17;;;;;;;;;;5017698;28;20202;-38
2022/04/26 15:26:06;;;;;;;2.50;1.97;;;;;;;;;;5027647;28;20272;-31
2022/04/26 15:28:34;;;;;;;2.50;2.30;;;;;;;;;;5030223;28;20252;-37
2022/04/26 15:31:01;;;;;;;6.93;2.80;;;;;;;;;;5027457;28;20227;-37
2022/04/26 15:33:29;;;;;;;14.37;3.03;;;;;;;;;;5029276;28;20234;-41
2022/04/26 15:35:57;;;;;;;2.43;2.07;;;;;;;;;;5021246;28;20684;-33
2022/04/26 15:38:27;;;;;;;4.80;1.93;;;;;;;;;;5034187;28;20199;-36
2022/04/26 15:41:01;;;;;;;11.53;2.37;;;;;;;;;;5024476;28;20202;-33
2022/04/26 15:43:29;;;;;;;18.33;3.07;;;;;;;;;;5019937;28;20219;-35
2022/04/26 15:45:57;;;;;;;9.37;2.40;;;;;;;;;;5014703;28;20285;-38
2022/04/26 15:48:24;;;;;;;23.90;5.40;;;;;;;;;;5015421;28;20238;-39
2022/04/26 15:50:51;;;;;;;11.33;3.80;;;;;;;;;;5032170;28;20226;-32
2022/04/26 15:53:18;;;;;;;6.73;2.90;;;;;;;;;;5029017;28;20199;-35
2022/04/26 15:55:45;;;;;;;21.13;3.33;;;;;;;;;;5027071;28;20310;-34
2022/04/26 15:58:14;;;;;;;24.43;4.67;;;;;;;;;;5019499;28;20211;-38
2022/04/26 16:00:41;;;;;;;35.40;4.63;;;;;;;;;;5031120;28;20210;-39
2022/04/26 16:03:08;;;;;;;65.10;9.20;;;;;;;;;;5034724;28;20202;-37
2022/04/26 16:05:36;;;;;;;13.90;3.20;;;;;;;;;;5019686;28;20228;-32
2022/04/26 16:08:03;;;;;;;23.07;3.53;;;;;;;;;;5021684;28;20282;-31
2022/04/26 16:21:34;;;;;;;3.70;1.97;;;;;;;;;;5039788;28;20535;-35
2022/04/26 16:24:01;;;;;;;3.27;1.90;;;;;;;;;;5026832;28;20207;-33
2022/04/26 16:26:29;;;;;;;2.20;1.90;;;;;;;;;;5018076;28;20232;-37
2022/04/26 16:28:57;;;;;;;2.50;2.10;;;;;;;;;;5024621;28;20231;-35
2022/04/26 16:31:29;;;;;;;2.87;2.30;;;;;;;;;;5029207;28;20218;-30
2022/04/26 16:33:56;;;;;;;3.47;2.40;;;;;;;;;;5021750;28;20199;-34
2022/04/26 16:36:24;;;;;;;2.97;2.20;;;;;;;;;;5015099;28;20317;-33
2022/04/26 16:38:51;;;;;;;5.73;2.47;;;;;;;;;;5015681;28;20215;-35
2022/04/26 16:41:19;;;;;;;2.53;2.17;;;;;;;;;;5008917;28;20205;-32
2022/04/26 16:43:49;;;;;;;11.53;3.13;;;;;;;;;;5026317;28;20218;-32
2022/04/26 16:46:19;;;;;;;2.10;1.93;;;;;;;;;;5041845;28;20226;-37
2022/04/26 16:48:47;;;;;;;1.70;1.60;;;;;;;;;;5018783;28;20204;-37
2022/04/26 16:51:15;;;;;;;2.23;2.03;;;;;;;;;;5015088;28;20326;-40
2022/04/26 16:53:42;;;;;;;2.60;1.80;;;;;;;;;;5029359;28;20256;-40
2022/04/26 16:56:09;;;;;;;2.23;2.07;;;;;;;;;;5014064;28;20226;-31
2022/04/26 16:58:36;;;;;;;2.03;1.93;;;;;;;;;;5028882;28;20218;-38
2022/04/26 17:01:04;;;;;;;3.00;2.80;;;;;;;;;;5019696;28;20443;-33
2022/04/26 17:03:33;;;;;;;2.63;2.23;;;;;;;;;;5027015;28;20198;-34
2022/04/26 17:06:01;;;;;;;2.60;2.40;;;;;;;;;;5027225;28;20222;-38
2022/04/26 17:08:28;;;;;;;2.90;2.17;;;;;;;;;;5027556;28;20262;-35
2022/04/26 17:11:41;;;;;;;3.13;2.33;;;;;;;;;;5017696;28;20280;-37
2022/04/26 17:13:43;;;;;;;2.17;1.93;;;;;;;;;;5024277;28;20249;-39
2022/04/26 17:16:10;;;;;;;2.50;2.20;;;;;;;;;;5022655;28;20231;-41
2022/04/26 17:18:41;;;;;;;3.13;2.20;;;;;;;;;;5031856;28;20230;-32
2022/04/26 17:21:08;;;;;;;2.47;2.20;;;;;;;;;;5032721;28;20198;-36
2022/04/26 17:23:35;;;;;;;2.50;2.00;;;;;;;;;;5035908;28;20214;-35
2022/04/26 17:26:02;;;;;;;4.93;4.47;;;;;;;;;;5027476;28;20214;-37
2022/04/26 17:28:29;;;;;;;6.20;5.60;;;;;;;;;;5032704;28;20203;-36
2022/04/26 17:30:57;;;;;;;2.40;2.20;;;;;;;;;;5026436;28;20214;-34
2022/04/26 17:33:24;;;;;;;3.07;2.70;;;;;;;;;;5014199;28;20222;-36
2022/04/26 17:35:52;;;;;;;2.73;2.03;;;;;;;;;;5025953;28;20234;-35
2022/04/26 17:38:19;;;;;;;5.93;2.20;;;;;;;;;;5019790;28;20246;-36
2022/04/26 17:40:46;;;;;;;2.97;2.50;;;;;;;;;;5021986;28;20207;-31
2022/04/26 17:43:14;;;;;;;2.77;2.43;;;;;;;;;;5021601;28;20196;-34
2022/04/26 17:45:46;;;;;;;2.30;2.10;;;;;;;;;;5019855;28;20231;-36
2022/04/26 17:48:13;;;;;;;4.60;2.20;;;;;;;;;;5031492;28;20206;-31
2022/04/26 17:50:43;;;;;;;4.53;2.40;;;;;;;;;;5028748;28;20240;-36
2022/04/26 17:58:42;;;;;;;2.47;2.00;;;;;;;;;;5014007;28;20345;-37
2022/04/26 18:01:12;;;;;;;7.20;2.43;;;;;;;;;;5012790;28;20210;-39
2022/04/26 18:03:39;;;;;;;2.47;1.90;;;;;;;;;;5039744;28;20210;-34
2022/04/26 18:06:08;;;;;;;1.80;1.70;;;;;;;;;;5019922;28;20218;-29
2022/04/26 18:08:37;;;;;;;2.30;2.10;;;;;;;;;;5019336;28;20243;-35
2022/04/26 18:11:04;;;;;;;2.50;2.30;;;;;;;;;;5024071;28;20210;-33
2022/04/26 18:13:31;;;;;;;2.43;2.20;;;;;;;;;;5035747;28;20234;-33
2022/04/26 18:15:59;;;;;;;2.37;2.13;;;;;;;;;;5022112;28;20219;-33
2022/04/26 18:18:27;;;;;;;2.17;2.00;;;;;;;;;;5021284;28;20207;-31
2022/04/26 18:20:54;;;;;;;1.83;1.73;;;;;;;;;;5031345;28;20225;-32
2022/04/26 18:23:21;;;;;;;2.03;1.87;;;;;;;;;;5016083;28;20198;-37
2022/04/26 18:28:34;;;;;;;2.00;1.90;;;;;;;;;;5015135;28;20342;-33
2022/04/26 18:31:02;;;;;;;2.70;2.07;;;;;;;;;;5024404;28;20223;-37
2022/04/26 18:33:29;;;;;;;2.13;2.03;;;;;;;;;;5022770;28;20238;-37
2022/04/26 18:35:57;;;;;;;2.47;1.73;;;;;;;;;;5028650;28;20230;-35
2022/04/26 18:38:24;;;;;;;2.20;2.00;;;;;;;;;;5014375;28;20298;-32
2022/04/26 18:40:54;;;;;;;4.87;2.80;;;;;;;;;;5026973;28;20210;-36
2022/04/26 18:43:22;;;;;;;2.70;2.30;;;;;;;;;;5019333;28;20221;-34
2022/04/26 18:45:49;;;;;;;3.70;2.60;;;;;;;;;;5038222;28;20262;-35
2022/04/26 18:48:16;;;;;;;2.87;2.30;;;;;;;;;;5031804;28;20202;-38
2022/04/26 18:50:43;;;;;;;4.80;2.67;;;;;;;;;;5029458;28;20202;-37
2022/04/26 18:53:11;;;;;;;3.47;2.30;;;;;;;;;;5017508;28;20316;-33
2022/04/26 18:55:38;;;;;;;2.50;2.30;;;;;;;;;;5026351;28;20237;-34
2022/04/26 18:58:07;;;;;;;2.70;2.23;;;;;;;;;;5034852;28;20214;-39
2022/04/26 19:00:36;;;;;;;2.47;2.27;;;;;;;;;;5038594;28;20194;-30
2022/04/26 19:03:03;;;;;;;2.60;2.40;;;;;;;;;;5035835;28;20198;-38
2022/04/26 19:05:30;;;;;;;2.40;2.20;;;;;;;;;;5022719;28;20254;-41
2022/04/26 19:07:57;;;;;;;2.70;2.30;;;;;;;;;;5023807;28;20231;-35
2022/04/26 19:13:10;;;;;;;2.97;2.77;;;;;;;;;;5029351;28;20234;-35
2022/04/26 19:15:38;;;;;;;3.67;2.77;;;;;;;;;;5027923;28;20227;-34
2022/04/26 19:18:05;;;;;;;3.30;3.00;;;;;;;;;;5034825;28;20215;-32
2022/04/26 19:20:34;;;;;;;3.40;2.50;;;;;;;;;;5017684;28;20207;-38
2022/04/26 19:23:02;;;;;;;2.70;2.50;;;;;;;;;;5031248;28;20195;-38